Saint Mary, Nebraska
Current Conditions -  °F | °C
As of 8:35 AM on Thursday 27 Nov 2014 (Local Time) from KBIE Reporting Station
Overcast Overcast  
Wind Chill: 17°   Ceiling: 4800
Heat Index: 17°   Visibility: 10mi
Dew Point: 12°   Wind: 0mph
Humidity: 81%   Direction: NA
Pressure: 30.52"   Gusts: NA
Location:  40.4616°N, 96.3476°W
Report Text: KBIE 271435Z AUTO 00000KT 10SM OVC048 M08/M11 A3052 RMK AO2 T10851112
Loading
Personal Weather Stations






























Interactive Weather Map New forecast layout! Learn more

10-Day Weather Forecast

Advertisements
Track Severe Weather on mobile